Time;durP1;ratioP1;P1;durP2;ratioP2;P2;SDS_P1;SDS_P2;PMS_P1;PMS_P2;Temp;Humidity;BMP_temperature;BMP_pressure;BME280_temperature;BME280_humidity;BME280_pressure;Samples;Min_cycle;Max_cycle;Signal;HPM_P1;HPM_P2
2023/10/11 00:01:27;;;;;;;19.73;8.93;;;;;;;;;;5032054;28;20037;-61
2023/10/11 00:03:53;;;;;;;18.83;7.20;;;;;;;;;;5044193;28;20349;-61
2023/10/11 00:06:19;;;;;;;16.75;7.53;;;;;;;;;;5027139;28;20047;-61
2023/10/11 00:08:46;;;;;;;28.48;8.80;;;;;;;;;;5052905;28;20049;-61
2023/10/11 00:11:18;;;;;;;19.92;7.63;;;;;;;;;;5044318;28;20057;-61
2023/10/11 00:13:46;;;;;;;15.88;8.30;;;;;;;;;;5044265;28;20136;-61
2023/10/11 00:16:16;;;;;;;17.75;8.07;;;;;;;;;;5044651;28;20060;-61
2023/10/11 00:18:43;;;;;;;18.88;8.60;;;;;;;;;;5043153;28;20537;-61
2023/10/11 00:21:15;;;;;;;23.65;8.88;;;;;;;;;;5042935;28;20341;-61
2023/10/11 00:23:43;;;;;;;20.65;8.82;;;;;;;;;;5043606;28;20414;-61
2023/10/11 00:26:09;;;;;;;18.33;8.63;;;;;;;;;;5044269;28;20044;-61
2023/10/11 00:28:37;;;;;;;19.35;7.88;;;;;;;;;;5043945;28;20175;-61
2023/10/11 00:31:06;;;;;;;19.05;8.40;;;;;;;;;;5033908;28;20100;-61
2023/10/11 00:33:33;;;;;;;15.65;8.48;;;;;;;;;;5043076;28;20483;-61
2023/10/11 00:36:02;;;;;;;18.35;9.00;;;;;;;;;;5044253;28;20033;-61
2023/10/11 00:38:28;;;;;;;21.60;8.95;;;;;;;;;;5043433;28;20048;-61
2023/10/11 00:43:34;;;;;;;20.60;9.23;;;;;;;;;;5043752;28;20043;-61
2023/10/11 00:46:01;;;;;;;20.80;8.68;;;;;;;;;;5034453;28;20071;-61
2023/10/11 00:48:29;;;;;;;22.20;9.35;;;;;;;;;;5043943;28;20052;-61
2023/10/11 00:50:56;;;;;;;24.75;10.25;;;;;;;;;;5043417;28;20498;-62
2023/10/11 00:53:26;;;;;;;20.75;9.95;;;;;;;;;;5043086;28;20052;-61
2023/10/11 00:55:55;;;;;;;19.23;9.55;;;;;;;;;;5043169;28;20056;-61
2023/10/11 00:58:21;;;;;;;25.80;9.43;;;;;;;;;;5043635;28;20049;-61
2023/10/11 01:00:48;;;;;;;25.80;10.63;;;;;;;;;;5043179;28;20052;-62
2023/10/11 01:03:17;;;;;;;22.40;9.63;;;;;;;;;;5043870;28;20041;-61
2023/10/11 01:05:48;;;;;;;;;;;;;;;;;;5038409;28;20091;-61
2023/10/11 01:08:14;;;;;;;19.98;9.70;;;;;;;;;;5041949;28;20026;-61
2023/10/11 01:10:45;;;;;;;29.00;12.23;;;;;;;;;;5042996;28;20095;-61
2023/10/11 01:13:13;;;;;;;29.52;10.68;;;;;;;;;;5035912;28;20414;-61
2023/10/11 01:15:40;;;;;;;32.43;11.80;;;;;;;;;;5035264;28;20045;-61
2023/10/11 01:18:07;;;;;;;23.42;11.35;;;;;;;;;;5043173;28;20103;-61
2023/10/11 01:20:37;;;;;;;25.55;11.10;;;;;;;;;;5051873;28;20446;-61
2023/10/11 01:23:06;;;;;;;23.98;11.45;;;;;;;;;;5042206;28;20056;-61
2023/10/11 01:25:33;;;;;;;20.50;11.23;;;;;;;;;;5043215;28;20049;-61
2023/10/11 01:27:59;;;;;;;30.35;11.60;;;;;;;;;;5043319;28;20112;-61
2023/10/11 01:30:27;;;;;;;27.13;12.52;;;;;;;;;;5042625;28;20049;-61
2023/10/11 01:32:54;;;;;;;28.48;13.13;;;;;;;;;;5042575;28;20124;-61
2023/10/11 01:35:21;;;;;;;29.75;12.70;;;;;;;;;;5042736;28;20056;-61
2023/10/11 01:37:48;;;;;;;27.85;11.85;;;;;;;;;;5024789;28;20059;-61
2023/10/11 01:40:20;;;;;;;30.58;12.10;;;;;;;;;;5043076;28;20049;-61
2023/10/11 01:42:49;;;;;;;27.40;12.57;;;;;;;;;;5033180;28;20128;-61
2023/10/11 01:45:15;;;;;;;28.83;12.38;;;;;;;;;;5051858;28;20052;-62
2023/10/11 01:47:41;;;;;;;36.20;12.95;;;;;;;;;;5042586;28;20056;-62
2023/10/11 01:50:07;;;;;;;32.28;12.75;;;;;;;;;;5041626;28;20569;-61
2023/10/11 01:52:34;;;;;;;32.70;12.50;;;;;;;;;;5043179;28;20090;-61
2023/10/11 01:55:01;;;;;;;28.50;12.05;;;;;;;;;;5041807;28;20072;-61
2023/10/11 01:57:27;;;;;;;30.05;13.43;;;;;;;;;;5042238;28;20048;-61
2023/10/11 01:59:53;;;;;;;32.35;13.35;;;;;;;;;;5042069;28;20040;-61
2023/10/11 02:02:24;;;;;;;37.78;14.45;;;;;;;;;;5007622;28;20044;-61
2023/10/11 02:04:50;;;;;;;28.17;13.45;;;;;;;;;;5046942;28;20053;-61
2023/10/11 02:07:16;;;;;;;36.55;14.13;;;;;;;;;;5052522;28;20079;-61
2023/10/11 02:09:43;;;;;;;29.33;13.57;;;;;;;;;;5045969;28;20064;-61
2023/10/11 02:12:10;;;;;;;32.67;14.05;;;;;;;;;;5039640;28;20111;-61
2023/10/11 02:14:40;;;;;;;33.77;14.67;;;;;;;;;;5045992;28;20049;-61
2023/10/11 02:17:06;;;;;;;27.45;13.40;;;;;;;;;;5040138;28;20049;-61
2023/10/11 02:19:32;;;;;;;35.10;14.50;;;;;;;;;;5045912;28;20041;-61
2023/10/11 02:22:00;;;;;;;30.00;13.52;;;;;;;;;;5038246;28;20099;-61
2023/10/11 02:24:26;;;;;;;31.20;13.30;;;;;;;;;;5043388;28;20052;-61
2023/10/11 02:26:54;;;;;;;33.70;13.60;;;;;;;;;;5045485;28;20120;-61
2023/10/11 02:29:21;;;;;;;44.25;14.32;;;;;;;;;;5046771;28;20049;-61
2023/10/11 02:31:55;;;;;;;33.28;12.90;;;;;;;;;;5046308;28;20159;-61
2023/10/11 02:34:22;;;;;;;29.75;13.10;;;;;;;;;;5028381;28;20064;-61
2023/10/11 02:37:10;;;;;;;29.45;13.07;;;;;;;;;;5032279;28;20040;-61
2023/10/11 02:39:43;;;;;;;28.40;13.32;;;;;;;;;;5046057;28;20048;-61
2023/10/11 02:42:09;;;;;;;34.60;13.60;;;;;;;;;;5046346;28;20043;-61
2023/10/11 02:44:41;;;;;;;24.42;13.73;;;;;;;;;;5045962;28;20045;-61
2023/10/11 02:47:08;;;;;;;37.55;14.63;;;;;;;;;;5057665;28;20108;-61
2023/10/11 02:49:34;;;;;;;37.60;15.05;;;;;;;;;;5045933;28;20057;-61
2023/10/11 02:52:07;;;;;;;34.83;14.35;;;;;;;;;;5045404;28;20036;-61
2023/10/11 02:54:39;;;;;;;27.75;13.90;;;;;;;;;;5044853;28;20135;-61
2023/10/11 02:57:18;;;;;;;26.73;13.73;;;;;;;;;;5037103;28;20049;-61
2023/10/11 02:59:50;;;;;;;27.75;13.15;;;;;;;;;;5045654;28;20072;-61
2023/10/11 03:02:15;;;;;;;32.03;13.10;;;;;;;;;;5045793;28;20033;-61
2023/10/11 03:04:42;;;;;;;30.40;13.50;;;;;;;;;;5046355;28;20094;-61
2023/10/11 03:07:12;;;;;;;32.25;13.63;;;;;;;;;;5037367;28;20049;-61
2023/10/11 03:09:40;;;;;;;30.33;13.57;;;;;;;;;;5035620;28;20545;-61
2023/10/11 03:12:17;;;;;;;28.98;13.65;;;;;;;;;;5044280;28;20061;-61
2023/10/11 03:14:45;;;;;;;32.63;13.20;;;;;;;;;;5039496;28;20105;-61
2023/10/11 03:17:14;;;;;;;36.08;12.85;;;;;;;;;;5039416;28;20119;-61
2023/10/11 03:19:45;;;;;;;35.92;14.18;;;;;;;;;;5044424;28;20041;-61
2023/10/11 03:22:19;;;;;;;32.83;13.25;;;;;;;;;;5045724;28;20045;-61
2023/10/11 03:24:49;;;;;;;31.85;12.88;;;;;;;;;;5045477;28;20045;-61
2023/10/11 03:27:16;;;;;;;30.88;13.05;;;;;;;;;;5049882;28;20065;-61
2023/10/11 03:29:43;;;;;;;35.72;12.45;;;;;;;;;;5044996;28;20049;-61
2023/10/11 03:32:09;;;;;;;29.08;12.32;;;;;;;;;;5044717;28;20067;-61
2023/10/11 03:34:36;;;;;;;30.90;12.18;;;;;;;;;;5038300;28;20509;-62
2023/10/11 03:37:10;;;;;;;29.00;13.27;;;;;;;;;;5044422;28;20048;-61
2023/10/11 03:44:40;;;;;;;30.52;11.98;;;;;;;;;;5036128;28;20182;-62
2023/10/11 03:47:09;;;;;;;32.08;12.82;;;;;;;;;;5034036;28;20041;-61
2023/10/11 03:52:04;;;;;;;33.90;12.05;;;;;;;;;;5045092;28;20099;-62
2023/10/11 03:54:30;;;;;;;32.70;11.75;;;;;;;;;;5025889;28;20044;-61
2023/10/11 03:56:56;;;;;;;28.83;11.45;;;;;;;;;;5045194;28;20232;-62
2023/10/11 03:59:26;;;;;;;32.40;12.30;;;;;;;;;;5021851;28;20048;-61
2023/10/11 04:01:59;;;;;;;28.63;11.77;;;;;;;;;;5037310;28;20096;-62
2023/10/11 04:04:25;;;;;;;31.30;11.75;;;;;;;;;;5032823;28;20045;-61
2023/10/11 04:06:51;;;;;;;32.60;11.73;;;;;;;;;;5044021;28;20041;-62
2023/10/11 04:09:37;;;;;;;32.30;11.38;;;;;;;;;;5043308;28;20127;-62
2023/10/11 04:12:04;;;;;;;24.67;11.07;;;;;;;;;;5043990;28;20056;-61
2023/10/11 04:14:39;;;;;;;27.98;11.93;;;;;;;;;;5044911;28;20110;-62
2023/10/11 04:19:50;;;;;;;33.88;11.40;;;;;;;;;;5031469;28;20049;-61
2023/10/11 04:22:18;;;;;;;33.72;12.15;;;;;;;;;;5044453;28;20045;-61
2023/10/11 04:24:48;;;;;;;28.65;11.80;;;;;;;;;;5041569;28;20499;-61
2023/10/11 04:29:47;;;;;;;36.03;13.13;;;;;;;;;;5036041;28;20038;-61
2023/10/11 04:32:14;;;;;;;37.15;11.93;;;;;;;;;;5034788;28;20037;-61
2023/10/11 04:34:55;;;;;;;31.85;12.32;;;;;;;;;;5043624;28;20526;-61
2023/10/11 04:37:27;;;;;;;28.52;12.45;;;;;;;;;;5038468;28;20049;-61
2023/10/11 04:40:14;;;;;;;30.45;12.65;;;;;;;;;;5050943;28;20036;-60
2023/10/11 04:42:40;;;;;;;38.28;12.23;;;;;;;;;;5033012;28;20128;-61
2023/10/11 04:45:06;;;;;;;33.92;11.93;;;;;;;;;;5041623;28;20124;-61
2023/10/11 04:47:50;;;;;;;33.30;11.73;;;;;;;;;;5040054;28;20085;-62
2023/10/11 04:50:16;;;;;;;31.33;12.20;;;;;;;;;;5036239;28;20052;-62
2023/10/11 04:52:48;;;;;;;37.67;11.93;;;;;;;;;;5038422;28;20522;-61
2023/10/11 04:55:15;;;;;;;33.35;12.02;;;;;;;;;;5040011;28;20517;-61
2023/10/11 04:58:04;;;;;;;32.88;12.20;;;;;;;;;;5029506;28;20055;-61
2023/10/11 05:00:31;;;;;;;27.98;11.73;;;;;;;;;;5040388;28;20119;-61
2023/10/11 05:03:02;;;;;;;31.77;12.05;;;;;;;;;;5042773;28;20071;-61
2023/10/11 05:05:28;;;;;;;32.17;11.93;;;;;;;;;;5035521;28;20503;-61
2023/10/11 05:08:05;;;;;;;33.33;11.88;;;;;;;;;;5042723;28;20052;-61
2023/10/11 05:10:43;;;;;;;29.05;12.98;;;;;;;;;;5042877;28;20287;-61
2023/10/11 05:13:13;;;;;;;36.20;12.48;;;;;;;;;;5023602;28;20743;-61
2023/10/11 05:15:43;;;;;;;43.65;13.40;;;;;;;;;;5043066;28;20080;-60
2023/10/11 05:18:09;;;;;;;27.75;12.43;;;;;;;;;;5043327;28;20249;-61
2023/10/11 05:23:11;;;;;;;40.28;12.90;;;;;;;;;;5037634;28;20048;-60
2023/10/11 05:25:40;;;;;;;35.67;12.73;;;;;;;;;;5052190;28;20110;-60
2023/10/11 05:31:06;;;;;;;40.90;13.77;;;;;;;;;;5025215;28;20052;-60
2023/10/11 05:33:45;;;;;;;33.45;12.55;;;;;;;;;;5042327;28;20045;-60
2023/10/11 05:36:17;;;;;;;38.78;13.65;;;;;;;;;;5042633;28;20666;-61
2023/10/11 05:52:44;;;;;;;37.70;13.65;;;;;;;;;;5015298;28;20049;-60
2023/10/11 05:55:10;;;;;;;37.60;14.10;;;;;;;;;;5023744;28;20066;-61
2023/10/11 05:57:36;;;;;;;35.47;13.70;;;;;;;;;;5045972;28;20048;-61
2023/10/11 06:00:22;;;;;;;39.35;13.73;;;;;;;;;;5032333;28;20581;-61
2023/10/11 06:02:49;;;;;;;38.55;14.60;;;;;;;;;;5028090;28;20056;-61
2023/10/11 06:05:17;;;;;;;36.67;13.93;;;;;;;;;;5036851;28;20044;-60
2023/10/11 06:07:43;;;;;;;39.58;14.18;;;;;;;;;;5038965;28;20307;-61
2023/10/11 06:10:13;;;;;;;38.83;14.00;;;;;;;;;;5042618;28;20044;-60
2023/10/11 06:12:39;;;;;;;41.42;14.48;;;;;;;;;;5041377;28;20109;-61
2023/10/11 06:15:15;;;;;;;38.70;14.60;;;;;;;;;;5042964;28;20155;-61
2023/10/11 06:17:41;;;;;;;41.03;14.75;;;;;;;;;;5043287;28;20049;-60
2023/10/11 06:20:38;;;;;;;54.65;15.68;;;;;;;;;;5041827;28;20044;-61
2023/10/11 06:23:02;;;;;;;36.47;14.18;;;;;;;;;;5039598;28;20073;-61
2023/10/11 06:28:16;;;;;;;39.05;15.07;;;;;;;;;;5041462;28;20048;-61
2023/10/11 06:30:50;;;;;;;34.72;14.55;;;;;;;;;;5032082;28;20128;-61
2023/10/11 06:33:21;;;;;;;36.15;14.40;;;;;;;;;;5041418;28;20546;-61
2023/10/11 06:35:49;;;;;;;40.33;15.52;;;;;;;;;;5031244;28;20045;-60
2023/10/11 06:38:15;;;;;;;42.72;14.80;;;;;;;;;;5040601;28;20052;-61
2023/10/11 06:40:49;;;;;;;39.72;15.27;;;;;;;;;;5040272;28;20129;-61
2023/10/11 06:43:15;;;;;;;42.13;14.60;;;;;;;;;;5041738;28;20115;-61
2023/10/11 06:45:42;;;;;;;41.92;15.77;;;;;;;;;;5042395;28;20490;-61
2023/10/11 06:48:08;;;;;;;41.80;16.20;;;;;;;;;;5046073;28;20380;-60
2023/10/11 06:50:38;;;;;;;42.60;15.52;;;;;;;;;;5045658;28;20128;-61
2023/10/11 06:53:06;;;;;;;41.95;15.88;;;;;;;;;;5044455;28;20057;-61
2023/10/11 06:55:33;;;;;;;40.05;15.60;;;;;;;;;;5046007;28;20041;-61
2023/10/11 06:58:03;;;;;;;39.00;17.77;;;;;;;;;;5045867;28;20153;-61
2023/10/11 07:00:29;;;;;;;39.03;14.98;;;;;;;;;;5028300;28;20057;-61
2023/10/11 07:05:46;;;;;;;42.08;15.98;;;;;;;;;;5046020;28;20049;-61
2023/10/11 07:08:20;;;;;;;39.17;16.20;;;;;;;;;;5040984;28;20502;-61
2023/10/11 07:11:02;;;;;;;45.42;15.70;;;;;;;;;;5042197;28;20361;-61
2023/10/11 07:13:30;;;;;;;46.85;15.73;;;;;;;;;;5036900;28;20052;-61
2023/10/11 07:16:08;;;;;;;40.10;15.55;;;;;;;;;;5045933;28;20037;-61
2023/10/11 07:18:39;;;;;;;41.55;15.70;;;;;;;;;;5045759;28;20052;-61
2023/10/11 07:21:07;;;;;;;41.28;15.30;;;;;;;;;;5045494;28;20116;-61
2023/10/11 07:23:46;;;;;;;37.33;14.98;;;;;;;;;;5039997;28;20061;-61
2023/10/11 07:28:52;;;;;;;45.85;16.92;;;;;;;;;;5022897;28;20053;-61
2023/10/11 07:31:18;;;;;;;42.85;16.60;;;;;;;;;;5036893;28;20119;-61
2023/10/11 07:33:49;;;;;;;50.60;16.35;;;;;;;;;;5043376;28;20044;-61
2023/10/11 07:36:18;;;;;;;43.35;15.75;;;;;;;;;;5038182;28;20097;-61
2023/10/11 07:38:46;;;;;;;43.75;16.88;;;;;;;;;;5043971;28;20072;-61
2023/10/11 07:41:18;;;;;;;40.93;14.97;;;;;;;;;;5053875;28;20060;-61
2023/10/11 07:43:47;;;;;;;45.63;16.55;;;;;;;;;;5046823;28;20293;-61
2023/10/11 07:46:14;;;;;;;40.97;15.27;;;;;;;;;;5045200;28;20041;-61
2023/10/11 07:48:40;;;;;;;46.47;16.17;;;;;;;;;;5045225;28;20037;-61
2023/10/11 07:51:09;;;;;;;46.53;15.82;;;;;;;;;;5027222;28;20426;-61
2023/10/11 07:53:40;;;;;;;46.72;16.85;;;;;;;;;;5043668;28;20033;-61
2023/10/11 07:56:06;;;;;;;51.08;17.88;;;;;;;;;;5048977;28;20037;-61
2023/10/11 07:58:35;;;;;;;44.50;16.52;;;;;;;;;;5040654;28;20042;-61
2023/10/11 08:01:15;;;;;;;48.65;17.38;;;;;;;;;;5044892;28;20044;-61
2023/10/11 08:03:44;;;;;;;47.38;17.75;;;;;;;;;;5038803;28;20059;-61
2023/10/11 08:06:12;;;;;;;50.10;16.90;;;;;;;;;;5044873;28;20056;-61
2023/10/11 08:08:38;;;;;;;54.90;18.33;;;;;;;;;;5043952;28;20443;-61
2023/10/11 08:11:18;;;;;;;48.30;18.20;;;;;;;;;;5036059;28;20049;-61
2023/10/11 08:13:45;;;;;;;49.03;17.70;;;;;;;;;;5034756;28;20053;-61
2023/10/11 08:16:17;;;;;;;47.90;18.27;;;;;;;;;;5044328;28;20040;-60
2023/10/11 08:18:43;;;;;;;42.35;17.65;;;;;;;;;;5034717;28;20053;-61
2023/10/11 08:21:10;;;;;;;46.35;17.05;;;;;;;;;;5039095;28;20585;-61
2023/10/11 08:23:36;;;;;;;54.50;17.88;;;;;;;;;;5034176;28;20055;-61
2023/10/11 08:26:07;;;;;;;44.92;17.70;;;;;;;;;;5052127;28;20033;-61
2023/10/11 08:28:34;;;;;;;50.35;18.38;;;;;;;;;;5044577;28;20056;-61
2023/10/11 08:31:00;;;;;;;45.37;17.47;;;;;;;;;;5036218;28;20048;-61
2023/10/11 08:33:30;;;;;;;49.28;18.88;;;;;;;;;;5044531;28;20045;-61
2023/10/11 08:35:56;;;;;;;53.00;19.10;;;;;;;;;;5034274;28;20087;-61
2023/10/11 08:38:26;;;;;;;49.47;19.30;;;;;;;;;;5025216;28;20372;-61
2023/10/11 08:40:58;;;;;;;55.42;19.58;;;;;;;;;;5026113;28;20106;-61
2023/10/11 08:43:34;;;;;;;59.05;18.88;;;;;;;;;;5043982;28;20051;-60
2023/10/11 08:46:09;;;;;;;52.35;20.00;;;;;;;;;;5044881;28;20045;-60
2023/10/11 08:48:38;;;;;;;57.00;20.23;;;;;;;;;;5043238;28;20052;-61
2023/10/11 08:51:11;;;;;;;47.60;18.75;;;;;;;;;;5043879;28;20053;-60
2023/10/11 08:53:54;;;;;;;55.10;19.55;;;;;;;;;;5033654;28;20136;-61
2023/10/11 08:56:22;;;;;;;54.00;19.80;;;;;;;;;;5043751;28;20179;-61
2023/10/11 08:58:51;;;;;;;57.95;20.10;;;;;;;;;;5043644;28;20140;-61
2023/10/11 09:01:17;;;;;;;47.67;19.38;;;;;;;;;;5044053;28;20522;-61
2023/10/11 09:03:43;;;;;;;46.08;17.30;;;;;;;;;;5035136;28;20148;-60
2023/10/11 09:06:22;;;;;;;47.22;18.48;;;;;;;;;;5043517;28;20139;-61
2023/10/11 09:08:49;;;;;;;47.08;18.83;;;;;;;;;;5042034;28;20061;-60
2023/10/11 09:11:28;;;;;;;46.72;17.52;;;;;;;;;;5043079;28;20086;-60
2023/10/11 09:14:10;;;;;;;50.15;17.70;;;;;;;;;;5041030;28;20045;-60
2023/10/11 09:16:37;;;;;;;40.65;16.90;;;;;;;;;;5034789;28;20041;-60
2023/10/11 09:19:09;;;;;;;44.28;16.23;;;;;;;;;;5040330;28;20557;-60
2023/10/11 09:21:35;;;;;;;35.38;15.23;;;;;;;;;;5040431;28;20060;-61
2023/10/11 09:24:03;;;;;;;38.70;15.68;;;;;;;;;;5037379;28;20042;-60
2023/10/11 09:26:37;;;;;;;40.90;15.50;;;;;;;;;;5036991;28;20124;-63
2023/10/11 09:29:05;;;;;;;39.90;13.57;;;;;;;;;;5040315;28;20037;-62
2023/10/11 09:31:32;;;;;;;38.47;13.98;;;;;;;;;;5040541;28;20060;-61
2023/10/11 09:34:07;;;;;;;34.72;13.15;;;;;;;;;;5023482;28;20044;-61
2023/10/11 09:36:33;;;;;;;30.38;12.55;;;;;;;;;;5027307;28;20053;-61
2023/10/11 09:39:02;;;;;;;30.33;11.70;;;;;;;;;;5041221;28;20048;-60
2023/10/11 09:41:28;;;;;;;33.35;11.65;;;;;;;;;;5039969;28;20569;-60
2023/10/11 09:43:57;;;;;;;25.42;10.32;;;;;;;;;;5040855;28;20114;-60
2023/10/11 09:46:28;;;;;;;29.48;10.05;;;;;;;;;;5040370;28;20380;-60
2023/10/11 09:48:55;;;;;;;25.70;9.50;;;;;;;;;;5040676;28;20203;-60
2023/10/11 09:51:24;;;;;;;22.70;9.50;;;;;;;;;;5022864;28;20399;-60
2023/10/11 09:53:51;;;;;;;24.73;9.32;;;;;;;;;;5040351;28;20076;-60
2023/10/11 09:56:20;;;;;;;29.58;9.02;;;;;;;;;;5040911;28;20041;-60
2023/10/11 09:58:53;;;;;;;21.70;8.73;;;;;;;;;;5040549;28;20099;-60
2023/10/11 10:01:26;;;;;;;22.85;8.52;;;;;;;;;;5040209;28;20061;-60
2023/10/11 10:03:53;;;;;;;23.23;8.27;;;;;;;;;;5040071;28;20041;-60
2023/10/11 10:06:19;;;;;;;21.67;8.10;;;;;;;;;;5035317;28;20060;-60
2023/10/11 10:08:50;;;;;;;18.38;7.32;;;;;;;;;;5040304;28;20052;-60
2023/10/11 10:11:19;;;;;;;16.40;7.18;;;;;;;;;;5039804;28;20368;-60
2023/10/11 10:14:23;;;;;;;19.77;6.90;;;;;;;;;;5040784;28;20041;-60
2023/10/11 10:17:10;;;;;;;18.08;6.78;;;;;;;;;;5033789;28;20057;-59
2023/10/11 10:19:39;;;;;;;17.42;6.72;;;;;;;;;;5039379;28;20057;-60
2023/10/11 10:22:11;;;;;;;23.40;7.07;;;;;;;;;;5041186;28;20060;-60
2023/10/11 10:24:41;;;;;;;14.85;6.00;;;;;;;;;;5044880;28;20499;-60
2023/10/11 10:27:35;;;;;;;16.10;6.38;;;;;;;;;;5047924;28;20045;-60
2023/10/11 10:30:03;;;;;;;22.40;6.20;;;;;;;;;;5044318;28;20044;-59
2023/10/11 10:32:29;;;;;;;;;;;;;;;;;;5044764;28;20815;-60
2023/10/11 10:35:14;;;;;;;14.30;5.03;;;;;;;;;;5040876;28;19921;-59
2023/10/11 10:37:55;;;;;;;20.58;6.22;;;;;;;;;;5043298;28;20049;-60
2023/10/11 10:40:26;;;;;;;18.00;5.60;;;;;;;;;;5043622;28;20477;-59
2023/10/11 10:43:14;;;;;;;17.38;6.20;;;;;;;;;;5044113;28;20045;-59
2023/10/11 10:45:40;;;;;;;14.20;5.30;;;;;;;;;;5038921;28;20037;-60
2023/10/11 10:48:15;;;;;;;12.82;5.28;;;;;;;;;;5036220;28;20049;-61
2023/10/11 10:51:01;;;;;;;26.25;14.50;;;;;;;;;;5043310;28;20216;-60
2023/10/11 10:53:42;;;;;;;11.73;5.25;;;;;;;;;;5033318;28;20057;-60
2023/10/11 10:56:29;;;;;;;14.02;6.32;;;;;;;;;;5043869;28;20576;-61
2023/10/11 10:59:07;;;;;;;13.60;5.15;;;;;;;;;;5044755;28;20087;-59
2023/10/11 11:01:34;;;;;;;13.75;4.97;;;;;;;;;;5040440;28;20049;-60
2023/10/11 11:04:12;;;;;;;16.33;4.85;;;;;;;;;;5025664;28;20056;-60
2023/10/11 11:06:46;;;;;;;13.50;5.13;;;;;;;;;;5041911;28;20097;-61
2023/10/11 11:09:19;;;;;;;9.95;4.53;;;;;;;;;;5042908;28;20044;-61
2023/10/11 11:11:46;;;;;;;17.98;4.70;;;;;;;;;;5043090;28;20049;-60
2023/10/11 11:14:13;;;;;;;15.38;5.60;;;;;;;;;;5038710;28;20179;-59
2023/10/11 11:16:40;;;;;;;9.80;4.00;;;;;;;;;;5037097;28;20041;-61
2023/10/11 11:19:25;;;;;;;18.70;11.77;;;;;;;;;;5038482;28;20243;-60
2023/10/11 11:22:01;;;;;;;16.83;5.75;;;;;;;;;;5032177;28;20057;-61
2023/10/11 11:24:41;;;;;;;10.57;3.92;;;;;;;;;;5042893;28;20506;-61
2023/10/11 11:27:25;;;;;;;13.45;4.43;;;;;;;;;;5043402;28;20049;-60
2023/10/11 11:29:51;;;;;;;11.10;4.50;;;;;;;;;;5038119;28;20057;-60
2023/10/11 11:32:19;;;;;;;8.82;3.60;;;;;;;;;;5033376;28;20084;-60
2023/10/11 11:35:02;;;;;;;9.30;3.75;;;;;;;;;;5022986;28;20056;-60
2023/10/11 11:37:29;;;;;;;17.95;4.55;;;;;;;;;;5042263;28;20132;-60
2023/10/11 11:40:18;;;;;;;16.42;4.68;;;;;;;;;;5045611;28;20064;-61
2023/10/11 11:42:48;;;;;;;11.63;4.22;;;;;;;;;;5039242;28;20049;-61
2023/10/11 11:45:15;;;;;;;10.82;4.13;;;;;;;;;;5038606;28;20036;-61
2023/10/11 11:47:55;;;;;;;10.88;3.85;;;;;;;;;;5037797;28;20499;-61
2023/10/11 11:50:22;;;;;;;10.98;3.67;;;;;;;;;;5031195;28;20063;-60
2023/10/11 11:52:48;;;;;;;9.50;5.55;;;;;;;;;;5041419;28;20045;-60
2023/10/11 11:55:14;;;;;;;17.40;4.07;;;;;;;;;;5044688;28;20064;-60
2023/10/11 11:57:42;;;;;;;14.27;4.93;;;;;;;;;;5042343;28;20099;-60
2023/10/11 12:02:50;;;;;;;12.88;3.70;;;;;;;;;;5042909;28;20154;-60
2023/10/11 12:05:16;;;;;;;12.07;3.70;;;;;;;;;;5045551;28;20060;-60
2023/10/11 12:07:43;;;;;;;9.23;3.60;;;;;;;;;;5043350;28;20112;-61
2023/10/11 12:10:23;;;;;;;11.10;5.38;;;;;;;;;;5043959;28;20041;-60
2023/10/11 12:12:50;;;;;;;11.40;3.47;;;;;;;;;;5041325;28;20059;-60
2023/10/11 12:15:17;;;;;;;11.82;3.10;;;;;;;;;;5023877;28;20045;-60
2023/10/11 12:17:43;;;;;;;12.77;3.50;;;;;;;;;;5041825;28;20045;-61
2023/10/11 12:20:12;;;;;;;11.25;3.65;;;;;;;;;;5041476;28;20077;-60
2023/10/11 12:22:44;;;;;;;11.68;4.00;;;;;;;;;;5038566;28;20033;-60
2023/10/11 12:25:13;;;;;;;9.63;3.38;;;;;;;;;;5046707;28;20043;-60
2023/10/11 12:27:42;;;;;;;14.25;4.30;;;;;;;;;;5044465;28;20045;-60
2023/10/11 12:30:22;;;;;;;13.25;4.15;;;;;;;;;;5045119;28;20033;-59
2023/10/11 12:32:48;;;;;;;12.82;3.28;;;;;;;;;;5036746;28;20052;-60
2023/10/11 12:35:14;;;;;;;10.85;3.72;;;;;;;;;;5044132;28;20033;-61
2023/10/11 12:37:40;;;;;;;11.73;3.70;;;;;;;;;;5043117;28;20049;-60
2023/10/11 12:40:11;;;;;;;8.77;3.65;;;;;;;;;;5056080;28;20696;-60
2023/10/11 12:42:37;;;;;;;14.00;3.97;;;;;;;;;;5044752;28;20045;-59
2023/10/11 12:45:07;;;;;;;8.63;3.17;;;;;;;;;;5056463;28;20052;-60
2023/10/11 12:47:34;;;;;;;10.15;3.22;;;;;;;;;;5044184;28;20049;-60
2023/10/11 12:50:00;;;;;;;9.73;3.50;;;;;;;;;;5043395;28;20049;-60
2023/10/11 12:52:30;;;;;;;12.38;3.53;;;;;;;;;;5042601;28;20059;-60
2023/10/11 12:54:56;;;;;;;10.90;3.28;;;;;;;;;;5040716;28;20123;-60
2023/10/11 12:57:23;;;;;;;11.38;4.07;;;;;;;;;;5031779;28;20041;-60
2023/10/11 12:59:49;;;;;;;13.90;3.45;;;;;;;;;;5041515;28;20554;-60
2023/10/11 13:02:21;;;;;;;15.73;3.50;;;;;;;;;;5018574;28;20051;-61
2023/10/11 13:04:48;;;;;;;13.40;3.17;;;;;;;;;;5031256;28;20053;-60
2023/10/11 13:07:14;;;;;;;7.35;3.05;;;;;;;;;;5040327;28;20528;-61
2023/10/11 13:09:40;;;;;;;11.13;3.15;;;;;;;;;;5041018;28;20131;-60
2023/10/11 13:12:06;;;;;;;10.80;3.05;;;;;;;;;;5041161;28;20052;-60
2023/10/11 13:14:38;;;;;;;8.80;2.90;;;;;;;;;;5040788;28;20482;-61
2023/10/11 13:17:08;;;;;;;13.25;3.35;;;;;;;;;;5037706;28;20056;-60
2023/10/11 13:19:34;;;;;;;10.20;3.15;;;;;;;;;;5040673;28;20727;-60
2023/10/11 13:22:01;;;;;;;9.40;2.85;;;;;;;;;;5033832;28;20176;-60
2023/10/11 13:24:27;;;;;;;9.50;3.40;;;;;;;;;;5041059;28;20122;-60
2023/10/11 13:26:57;;;;;;;13.13;3.45;;;;;;;;;;5042625;28;20052;-64
2023/10/11 13:29:23;;;;;;;8.10;3.20;;;;;;;;;;5041179;28;20044;-60
2023/10/11 13:31:53;;;;;;;12.40;3.28;;;;;;;;;;5038733;28;20033;-61
2023/10/11 13:34:19;;;;;;;7.72;2.55;;;;;;;;;;5038412;28;20094;-60
2023/10/11 13:36:45;;;;;;;10.00;2.63;;;;;;;;;;5039129;28;20398;-62
2023/10/11 13:39:27;;;;;;;10.70;3.10;;;;;;;;;;5040606;28;20044;-60
2023/10/11 13:41:53;;;;;;;14.05;2.78;;;;;;;;;;5037267;28;20049;-61
2023/10/11 13:44:21;;;;;;;8.55;2.90;;;;;;;;;;5038024;28;20356;-61
2023/10/11 13:46:51;;;;;;;8.30;3.15;;;;;;;;;;5037361;28;20044;-61
2023/10/11 13:49:24;;;;;;;8.32;2.78;;;;;;;;;;5039366;28;20110;-61
2023/10/11 13:51:51;;;;;;;13.82;2.97;;;;;;;;;;5038772;28;20053;-61
2023/10/11 13:54:32;;;;;;;10.85;3.00;;;;;;;;;;5039627;28;20045;-61
2023/10/11 13:56:59;;;;;;;9.25;2.58;;;;;;;;;;5033614;28;20073;-61
2023/10/11 13:59:28;;;;;;;12.82;2.60;;;;;;;;;;5043123;28;20620;-60
2023/10/11 14:07:22;;;;;;;9.55;2.38;;;;;;;;;;5025035;28;20146;-60
2023/10/11 14:09:53;;;;;;;8.80;2.60;;;;;;;;;;5039937;28;20053;-60
2023/10/11 14:12:19;;;;;;;13.63;2.50;;;;;;;;;;5040093;28;20099;-60
2023/10/11 14:14:45;;;;;;;9.45;2.45;;;;;;;;;;5028896;28;20080;-60
2023/10/11 14:17:15;;;;;;;7.88;2.72;;;;;;;;;;5027759;28;20085;-60
2023/10/11 14:19:41;;;;;;;8.18;2.45;;;;;;;;;;5026424;28;20073;-60
2023/10/11 14:22:07;;;;;;;11.60;2.40;;;;;;;;;;5047375;28;20225;-61
2023/10/11 14:24:35;;;;;;;9.68;2.47;;;;;;;;;;5041595;28;20041;-61
2023/10/11 14:27:05;;;;;;;8.43;2.05;;;;;;;;;;5040137;28;20541;-61
2023/10/11 14:29:31;;;;;;;13.32;2.33;;;;;;;;;;5033672;28;20152;-61
2023/10/11 14:31:57;;;;;;;10.50;2.60;;;;;;;;;;5029171;28;20553;-60
2023/10/11 14:34:23;;;;;;;13.13;2.60;;;;;;;;;;5024125;28;20046;-60
2023/10/11 14:36:50;;;;;;;17.00;2.88;;;;;;;;;;5024004;28;20124;-60
2023/10/11 14:39:22;;;;;;;7.05;2.25;;;;;;;;;;5022980;28;20053;-60
2023/10/11 14:41:50;;;;;;;9.07;2.35;;;;;;;;;;5040616;28;20045;-60
2023/10/11 14:44:17;;;;;;;6.97;2.63;;;;;;;;;;5057961;28;20048;-60
2023/10/11 14:46:44;;;;;;;9.55;2.55;;;;;;;;;;5042384;28;20760;-60
2023/10/11 14:49:11;;;;;;;7.43;2.70;;;;;;;;;;5037370;28;20053;-61
2023/10/11 14:51:39;;;;;;;13.63;2.95;;;;;;;;;;5037162;28;20537;-60
2023/10/11 14:54:05;;;;;;;11.38;2.95;;;;;;;;;;5041060;28;20053;-60
2023/10/11 14:56:32;;;;;;;12.32;3.00;;;;;;;;;;5032581;28;20065;-61
2023/10/11 14:58:58;;;;;;;10.43;2.75;;;;;;;;;;5032540;28;20044;-60
2023/10/11 15:01:25;;;;;;;8.13;2.60;;;;;;;;;;5047644;28;20041;-61
2023/10/11 15:03:51;;;;;;;11.25;3.10;;;;;;;;;;5039115;28;20120;-61
2023/10/11 15:06:19;;;;;;;9.40;2.50;;;;;;;;;;5036307;28;20044;-61
2023/10/11 15:08:45;;;;;;;;;;;;;;;;;;5033734;28;20067;-61
2023/10/11 15:11:13;;;;;;;13.35;2.90;;;;;;;;;;5035680;28;20441;-61
2023/10/11 15:13:40;;;;;;;13.65;2.67;;;;;;;;;;5033756;28;20576;-61
2023/10/11 15:16:07;;;;;;;10.52;3.13;;;;;;;;;;5042324;28;20041;-61
2023/10/11 15:18:34;;;;;;;16.05;3.00;;;;;;;;;;5031717;28;20056;-60
2023/10/11 15:21:00;;;;;;;9.18;2.78;;;;;;;;;;5039658;28;20525;-60
2023/10/11 15:23:28;;;;;;;8.52;2.70;;;;;;;;;;5032864;28;20064;-60
2023/10/11 15:25:54;;;;;;;10.63;3.07;;;;;;;;;;5041753;28;20055;-60
2023/10/11 15:28:20;;;;;;;13.85;3.35;;;;;;;;;;5034537;28;20628;-61
2023/10/11 15:30:47;;;;;;;17.52;3.78;;;;;;;;;;5025499;28;20443;-60
2023/10/11 15:33:14;;;;;;;12.98;3.55;;;;;;;;;;5042603;28;20060;-60